Latest Weather Observations for Barrow Island

IDW60801

Issued at 1:23 pm WST Wednesday 19 December 2018 (issued every 10 minutes, with the page automatically refreshed every 10 minutes)

About weather observations | Map of weather stations | Latest weather observations for WA | Other Formats
Station Details ID: 005094 Name: BARROW ISLAND AIRPORT Lat: -20.87 Lon: 115.41 Height: 6.4 m
Data from the previous 72 hours. | See also: Recent months at Barrow Island
Date/Time
WST
Temp
°C
App
Temp
°C
Dew
Point
°C
Rel
Hum
%
Delta-T
°C
Wind Press
QNH
hPa
Press
MSL
hPa
Rain since
9am
mm
Dir  Spd
km/h
Gust
km/h
Spd
kts
Gust
kts
19/01:00pm 29.7 29.7 18.2 50 7.4 WSW 15 20 8 11 1008.3 - 0.0
19/12:30pm 29.1 28.7 19.4 55 6.3 SW 20 28 11 15 1008.5 - 0.0
19/12:00pm 28.7 27.8 18.2 53 6.7 SW 20 24 11 13 1008.5 1008.5 0.0
19/11:30am 28.3 26.8 19.5 59 5.7 SW 26 33 14 18 1008.5 - 0.0
19/11:00am 27.6 25.9 18.9 59 5.6 SW 26 32 14 17 1009.0 - 0.0
19/10:30am 26.8 24.7 18.1 59 5.5 SW 26 33 14 18 1009.1 - 0.0
19/10:00am 27.0 24.8 19.6 64 4.8 WSW 30 35 16 19 1009.2 - 0.0
19/09:30am 26.2 23.1 18.8 63 4.7 WSW 33 43 18 23 1009.0 - 0.0
19/09:00am 25.5 21.2 18.7 66 4.3 WSW 39 46 21 25 1008.7 1008.7 0.0
19/08:30am 25.5 21.7 18.9 67 4.2 WSW 37 43 20 23 1008.9 - 0.0
19/08:00am 24.8 21.4 19.0 70 3.7 WSW 35 43 19 23 1009.2 - 0.0
19/07:30am 24.6 21.3 19.2 72 3.5 WSW 35 41 19 22 1009.1 - 0.0
19/07:00am 24.0 20.3 19.1 74 3.1 WSW 37 44 20 24 1008.5 - 0.0
19/06:30am 23.6 19.9 19.1 76 2.9 WSW 37 44 20 24 1008.3 - 0.0
19/06:00am 23.3 20.5 19.0 77 2.7 WSW 32 39 17 21 1008.2 1008.2 0.0
19/05:30am 23.2 20.6 18.7 76 2.8 WSW 30 37 16 20 1008.1 - 0.0
19/05:00am 23.4 20.9 18.1 72 3.3 WSW 28 35 15 19 1007.9 - 0.0
19/04:30am 23.2 20.8 18.3 74 3.1 WSW 28 33 15 18 1007.7 - 0.0
19/04:00am 23.2 20.8 18.3 74 3.1 WSW 28 35 15 19 1007.7 - 0.0
19/03:30am 23.4 20.6 18.3 73 3.2 W 30 35 16 19 1007.6 - 0.0
19/03:00am 23.5 20.6 17.9 71 3.5 W 30 39 16 21 1007.7 1007.7 0.0
19/02:30am 23.3 21.0 18.4 74 3.1 W 28 37 15 20 1007.9 - 0.0
19/02:00am 23.2 21.0 18.7 76 2.8 W 28 35 15 19 1008.0 - 0.0
19/01:30am 23.4 21.3 18.9 76 2.9 W 28 35 15 19 1008.2 - 0.0
19/01:00am 23.5 21.3 18.8 75 3.0 W 28 33 15 18 1008.4 - 0.0
19/12:30am 23.4 21.0 19.1 77 2.7 WSW 30 39 16 21 1008.9 - 0.0
19/12:00am 23.2 21.1 19.8 81 2.2 WSW 30 37 16 20 1009.2 1009.2 0.0
 
Date/Time
WST
Temp
°C
App
Temp
°C
Dew
Point
°C
Rel
Hum
%
Delta-T
°C
Wind Press
QNH
hPa
Press
MSL
hPa
Rain since
9am
mm
Dir  Spd
km/h
Gust
km/h
Spd
kts
Gust
kts
18/11:30pm 23.1 21.2 20.1 83 1.9 WSW 30 37 16 20 1009.5 - 0.0
18/11:00pm 23.3 21.0 20.2 83 2.0 WSW 32 39 17 21 1009.8 - 0.0
18/10:30pm 23.3 21.0 20.2 83 2.0 WSW 32 39 17 21 1009.9 - 0.0
18/10:00pm 23.3 21.4 20.2 83 2.0 WSW 30 41 16 22 1009.9 - 0.0
18/09:30pm 23.3 21.4 20.2 83 2.0 WSW 30 39 16 21 1009.9 - 0.0
18/09:00pm 23.4 20.9 20.1 82 2.1 WSW 33 43 18 23 1009.6 1009.6 0.0
18/08:30pm 23.5 21.0 20.2 82 2.1 WSW 33 43 18 23 1009.4 - 0.0
18/08:00pm 23.7 21.0 20.4 82 2.1 WSW 35 46 19 25 1009.1 - 0.0
18/07:30pm 23.6 21.3 20.1 81 2.3 W 32 39 17 21 1008.8 - 0.0
18/07:00pm 23.9 21.6 20.2 80 2.4 W 32 41 17 22 1008.5 - 0.0
18/06:30pm 24.7 22.4 20.2 76 2.9 W 32 43 17 23 1008.1 - 0.0
18/06:00pm 25.3 22.1 20.3 74 3.3 W 37 44 20 24 1007.9 1007.9 0.0
18/05:30pm 26.0 22.6 19.9 69 4.0 W 37 44 20 24 1007.8 - 0.0
18/05:00pm 26.8 23.4 19.9 66 4.5 W 37 44 20 24 1007.7 - 0.0
18/04:30pm 28.0 24.5 19.5 60 5.5 W 37 46 20 25 1007.7 - 0.0
18/04:00pm 27.8 23.9 18.8 58 5.8 W 37 44 20 24 1007.6 - 0.0
18/03:30pm 28.4 25.3 18.8 56 6.2 W 33 43 18 23 1008.0 - 0.0
18/03:00pm 29.0 25.8 18.1 51 7.0 W 32 39 17 21 1008.3 1008.3 0.0
18/02:30pm 29.9 27.5 19.0 52 7.1 W 30 35 16 19 1008.4 - 0.0
18/02:00pm 29.3 27.1 18.7 52 6.8 WSW 28 35 15 19 1008.9 - 0.0
18/01:30pm 29.4 27.0 18.2 51 7.2 SW 28 35 15 19 1009.3 - 0.0
18/01:00pm 29.4 26.7 17.6 49 7.5 SW 28 35 15 19 1009.4 - 0.0
18/12:30pm 29.1 26.5 17.9 50 7.1 WSW 28 35 15 19 1009.5 - 0.0
18/12:00pm 28.2 25.4 18.3 55 6.3 SW 30 35 16 19 1009.8 1009.8 0.0
18/11:30am 27.8 24.9 17.9 54 6.3 SW 30 35 16 19 1010.0 - 0.0
18/11:00am 27.3 24.3 17.8 56 6.0 SW 30 37 16 20 1010.3 - 0.0
18/10:30am 26.3 23.6 18.4 61 5.0 SW 30 35 16 19 1010.4 - 0.0
18/10:00am 25.5 22.3 18.2 64 4.6 SSW 32 35 17 19 1010.4 - 0.0
18/09:30am 24.9 21.7 18.1 66 4.3 SSW 32 37 17 20 1010.4 - 0.0
18/09:00am 24.5 21.3 18.2 68 4.0 SSW 32 37 17 20 1010.4 1010.4 0.0
18/08:30am 24.3 21.0 18.0 68 4.0 SSW 32 35 17 19 1010.3 - 0.0
18/08:00am 23.9 20.6 17.9 69 3.8 SSW 32 37 17 20 1010.2 - 0.0
18/07:30am 23.5 19.9 17.7 70 3.6 SSW 33 39 18 21 1009.9 - 0.0
18/07:00am 23.2 19.6 17.6 71 3.5 SSW 33 39 18 21 1009.7 - 0.0
18/06:30am 22.8 18.8 17.7 73 3.2 SSW 35 39 19 21 1009.6 - 0.0
18/06:00am 22.5 18.7 18.1 76 2.8 SSW 35 41 19 22 1009.3 1009.3 0.0
18/05:30am 22.2 17.8 17.6 75 2.8 SSW 37 43 20 23 1009.0 - 0.0
18/05:00am 22.0 18.1 17.8 77 2.6 SSW 35 41 19 22 1008.8 - 0.0
18/04:30am 22.0 16.9 17.6 76 2.7 SSW 41 48 22 26 1008.6 - 0.0
18/04:00am 22.0 16.5 17.6 76 2.7 SSW 43 50 23 27 1008.5 - 0.0
18/03:30am 22.3 16.9 17.9 76 2.7 SSW 43 50 23 27 1008.3 - 0.0
18/03:00am 22.3 16.7 17.9 76 2.7 SW 44 54 24 29 1008.3 1008.3 0.0
18/02:30am 22.2 16.7 18.0 77 2.6 SW 44 52 24 28 1008.3 - 0.0
18/02:00am 22.3 16.9 18.3 78 2.5 SW 44 56 24 30 1008.2 - 0.0
18/01:30am 22.5 17.3 18.7 79 2.4 SW 44 54 24 29 1008.3 - 0.0
18/01:00am 22.6 16.9 18.6 78 2.5 SW 46 57 25 31 1008.2 - 0.0
18/12:30am 22.7 15.9 18.7 78 2.5 SW 52 61 28 33 1008.6 - 0.0
18/12:00am 22.7 15.8 18.5 77 2.6 SW 52 63 28 34 1008.8 1008.8 0.0
 
Date/Time
WST
Temp
°C
App
Temp
°C
Dew
Point
°C
Rel
Hum
%
Delta-T
°C
Wind Press
QNH
hPa
Press
MSL
hPa
Rain since
9am
mm
Dir  Spd
km/h
Gust
km/h
Spd
kts
Gust
kts
17/11:30pm 22.8 16.4 18.6 77 2.6 SW 50 59 27 32 1009.1 - 0.0
17/11:00pm 22.9 16.3 18.2 75 2.9 SW 50 61 27 33 1009.2 - 0.0
17/10:30pm 23.2 16.2 18.1 73 3.2 SW 52 61 28 33 1009.4 - 0.0
17/10:00pm 23.4 17.1 18.1 72 3.3 SW 48 61 26 33 1009.4 - 0.0
17/09:30pm 23.5 16.8 17.9 71 3.5 SW 50 61 27 33 1009.2 - 0.0
17/09:00pm 23.5 18.0 18.2 72 3.3 SW 44 57 24 31 1008.9 1008.9 0.0
17/08:30pm 23.7 17.6 18.4 72 3.3 SW 48 59 26 32 1008.7 - 0.0
17/08:00pm 23.7 18.2 18.1 71 3.5 WSW 44 56 24 30 1008.5 - 0.0
17/07:30pm 23.8 18.4 18.4 72 3.4 WSW 44 57 24 31 1008.1 - 0.0
17/07:00pm 23.8 18.4 18.4 72 3.4 WSW 44 57 24 31 1007.8 - 0.0
17/06:30pm 24.2 19.3 18.2 69 3.8 WSW 41 50 22 27 1007.6 - 0.0
17/06:00pm 24.8 19.0 18.3 67 4.1 WSW 46 56 25 30 1007.4 1007.4 0.0
17/05:30pm 25.0 18.8 18.2 66 4.3 WSW 48 57 26 31 1007.2 - 0.0
17/05:00pm 25.5 19.1 17.9 63 4.8 WSW 48 57 26 31 1007.2 - 0.0
17/04:30pm 26.1 20.0 17.7 60 5.3 WSW 46 57 25 31 1007.2 - 0.0
17/04:00pm 26.4 20.7 17.2 57 5.7 WSW 43 54 23 29 1007.4 - 0.0
17/03:30pm 27.0 21.1 17.2 55 6.1 WSW 44 57 24 31 1007.6 - 0.0
17/03:00pm 27.0 20.3 16.0 51 6.8 WSW 46 56 25 30 1008.0 1008.0 0.0
17/02:30pm 27.2 21.0 15.9 50 6.9 WSW 43 52 23 28 1008.5 - 0.0
17/02:00pm 26.5 20.0 15.2 49 6.8 WSW 43 54 23 29 1009.1 - 0.0
17/01:30pm 26.2 20.2 16.4 54 6.0 SW 43 50 23 27 1009.7 - 0.0
17/01:00pm 25.7 20.5 16.5 56 5.7 SW 39 48 21 26 1010.1 - 0.0
17/12:30pm 25.8 20.9 17.4 59 5.2 SW 39 48 21 26 1010.6 - 0.0
17/12:00pm 25.5 21.2 17.9 63 4.8 SW 37 46 20 25 1010.9 1010.9 0.0
17/11:30am 25.0 20.6 16.7 60 5.1 SW 35 43 19 23 1011.2 - 0.0
17/11:00am 24.9 21.4 17.9 65 4.4 SW 33 43 18 23 1011.5 - 0.0
17/10:30am 24.3 20.3 17.5 66 4.2 SSW 35 41 19 22 1011.8 - 0.0
17/10:00am 23.2 19.1 16.5 66 4.1 SSW 33 41 18 22 1012.1 - 0.0
17/09:30am 23.3 19.5 17.1 68 3.8 SSW 33 41 18 22 1012.2 - 0.0
17/09:00am 22.9 17.6 16.4 67 4.0 SW 39 44 21 24 1012.3 1012.3 0.0
17/08:30am 22.1 16.1 16.4 70 3.5 SSW 43 52 23 28 1012.2 - 0.0
17/08:00am 22.0 16.5 16.7 72 3.2 SSW 41 48 22 26 1012.2 - 0.0
17/07:30am 21.5 15.3 16.0 71 3.3 SSW 43 50 23 27 1012.1 - 0.0
17/07:00am 21.1 14.8 16.1 73 3.0 SSW 44 52 24 28 1012.0 - 0.0
17/06:30am 20.9 14.8 16.1 74 2.9 SSW 43 54 23 29 1011.5 - 0.0
17/06:00am 20.7 14.4 16.1 75 2.8 SW 44 54 24 29 1011.2 1011.2 0.0
17/05:30am 20.7 13.9 15.9 74 2.9 SW 46 54 25 29 1010.9 - 0.0
17/05:00am 20.9 14.2 16.1 74 2.9 SW 46 57 25 31 1010.5 - 0.0
17/04:30am 20.9 13.8 16.1 74 2.9 SW 48 56 26 30 1010.1 - 0.0
17/04:00am 21.0 14.3 16.0 73 3.0 SW 46 57 25 31 1010.0 - 0.0
17/03:30am 21.1 13.9 15.9 72 3.1 SSW 48 61 26 33 1009.8 - 0.0
17/03:00am 21.1 14.0 16.1 73 3.0 SW 48 57 26 31 1009.5 1009.5 0.0
17/02:30am 21.2 13.2 15.7 71 3.3 SW 52 63 28 34 1009.3 - 0.0
17/02:00am 21.4 12.6 15.7 70 3.4 SSW 56 65 30 35 1009.2 - 0.0
17/01:30am 21.3 12.4 15.4 69 3.5 SW 56 67 30 36 1009.0 - 0.0
17/01:00am 21.4 13.0 15.5 69 3.5 SSW 54 65 29 35 1009.0 - 0.0
17/12:30am 21.4 13.1 15.0 67 3.8 SW 52 65 28 35 1009.3 - 0.0
17/12:00am 21.7 12.5 14.6 64 4.2 SSW 56 65 30 35 1009.5 1009.5 0.0
 
Date/Time
WST
Temp
°C
App
Temp
°C
Dew
Point
°C
Rel
Hum
%
Delta-T
°C
Wind Press
QNH
hPa
Press
MSL
hPa
Rain since
9am
mm
Dir  Spd
km/h
Gust
km/h
Spd
kts
Gust
kts
16/11:30pm 21.6 13.0 15.2 67 3.8 SW 54 63 29 34 1009.9 - 0.0
16/11:00pm 21.7 13.2 15.3 67 3.8 SW 54 63 29 34 1010.1 - 0.0
16/10:30pm 21.6 13.4 15.2 67 3.8 SW 52 63 28 34 1010.2 - 0.0
16/10:00pm 21.7 13.0 13.6 60 4.7 SW 52 63 28 34 1010.1 - 0.0
16/09:30pm 21.9 12.7 13.3 58 4.9 SW 54 65 29 35 1010.0 - 0.0
16/09:00pm 22.5 13.7 13.3 56 5.3 SW 52 63 28 34 1009.7 1009.7 0.0
16/08:30pm 23.0 14.3 14.8 60 4.9 SW 54 63 29 34 1009.6 - 0.0
16/08:00pm 23.2 13.9 14.2 57 5.3 SW 56 67 30 36 1009.3 - 0.0
16/07:30pm 23.3 16.0 16.6 66 4.1 SW 50 63 27 34 1008.8 - 0.0
16/07:00pm 23.4 16.5 17.4 69 3.7 SW 50 65 27 35 1008.4 - 0.0
16/06:30pm 24.0 16.6 17.3 66 4.2 SW 52 63 28 34 1008.1 - 0.0
16/06:00pm 24.6 17.4 17.8 66 4.3 WSW 52 63 28 34 1007.8 1007.8 0.0
16/05:30pm 25.2 18.6 18.2 65 4.4 WSW 50 63 27 34 1007.3 - 0.0
16/05:00pm 25.6 19.1 18.5 65 4.5 WSW 50 61 27 33 1007.3 - 0.0
16/04:30pm 26.0 18.9 17.9 61 5.1 WSW 52 61 28 33 1007.0 - 0.0
16/04:00pm 26.2 20.1 17.6 59 5.4 WSW 46 59 25 32 1007.2 - 0.0
16/03:30pm 26.5 20.5 17.8 58 5.5 WSW 46 57 25 31 1007.5 - 0.0
16/03:00pm 26.7 21.3 16.9 55 6.1 W 41 52 22 28 1007.9 1007.9 0.0
16/02:30pm 26.9 21.0 16.8 54 6.3 W 43 54 23 29 1008.1 - 0.0
16/02:00pm 27.0 21.2 16.9 54 6.3 WSW 43 54 23 29 1008.4 - 0.0
16/01:30pm 26.7 20.1 16.3 53 6.4 WSW 46 57 25 31 1008.6 - 0.0

Other Formats:

Comma delimited format used in spreadsheet applications
http://www.bom.gov.au/fwo/IDW60801/IDW60801.95304.axf

JavaScript Object Notation format (JSON) in row-major order
http://www.bom.gov.au/fwo/IDW60801/IDW60801.95304.json